Aquilla, Alabama
Current Conditions -  °F | °C
As of 9:58 AM on Friday 28 Nov 2014 (Local Time) from KMEI Reporting Station
Clear Clear  
Wind Chill:   Ceiling: Unl
Heat Index:   Visibility: 10mi
Dew Point: -4°   Wind: 8mph
Humidity: 44%   Direction: 30°NNE
Pressure: 30.45"   Gusts: NA
Location:  31.6272°N, 88.354°W
Report Text: KMEI 281558Z 03007KT 10SM CLR 08/M04 A3045 RMK AO2 SLP312 T00781039
Loading
Personal Weather Stations






























Interactive Weather Map New forecast layout! Learn more

10-Day Weather Forecast

Advertisements
Track Severe Weather on mobile